sensor_id;sensor_type;location;lat;lon;timestamp;pressure;altitude;pressure_sealevel;temperature;humidity
4022;BME280;2025;48.260;16.432;2024-02-04T00:01:36;100373.66;;;7.67;81.26
4022;BME280;2025;48.260;16.432;2024-02-04T00:04:03;100371.75;;;7.79;80.37
4022;BME280;2025;48.260;16.432;2024-02-04T00:06:30;100364.81;;;7.68;80.47
4022;BME280;2025;48.260;16.432;2024-02-04T00:08:57;100373.09;;;7.64;81.04
4022;BME280;2025;48.260;16.432;2024-02-04T00:11:24;100381.34;;;7.59;81.06
4022;BME280;2025;48.260;16.432;2024-02-04T00:13:51;100383.84;;;7.60;81.01
4022;BME280;2025;48.260;16.432;2024-02-04T00:16:18;100388.00;;;7.63;80.91
4022;BME280;2025;48.260;16.432;2024-02-04T00:18:47;100381.94;;;7.63;80.79
4022;BME280;2025;48.260;16.432;2024-02-04T00:21:14;100371.97;;;7.56;80.89
4022;BME280;2025;48.260;16.432;2024-02-04T00:23:41;100368.81;;;7.63;80.46
4022;BME280;2025;48.260;16.432;2024-02-04T00:26:08;100379.97;;;7.55;81.11
4022;BME280;2025;48.260;16.432;2024-02-04T00:28:35;100379.53;;;7.50;80.85
4022;BME280;2025;48.260;16.432;2024-02-04T00:31:02;100371.22;;;7.25;81.45
4022;BME280;2025;48.260;16.432;2024-02-04T00:33:29;100372.34;;;7.32;81.68
4022;BME280;2025;48.260;16.432;2024-02-04T00:35:57;100372.56;;;7.60;80.79
4022;BME280;2025;48.260;16.432;2024-02-04T00:38:24;100367.16;;;7.62;80.80
4022;BME280;2025;48.260;16.432;2024-02-04T00:40:51;100367.63;;;7.86;79.44
4022;BME280;2025;48.260;16.432;2024-02-04T00:43:20;100364.13;;;7.76;79.94
4022;BME280;2025;48.260;16.432;2024-02-04T00:45:47;100366.22;;;7.92;79.11
4022;BME280;2025;48.260;16.432;2024-02-04T00:48:14;100368.72;;;7.93;79.06
4022;BME280;2025;48.260;16.432;2024-02-04T00:50:41;100375.78;;;7.93;78.96
4022;BME280;2025;48.260;16.432;2024-02-04T00:53:09;100360.16;;;8.01;78.59
4022;BME280;2025;48.260;16.432;2024-02-04T00:55:36;100345.94;;;8.13;77.90
4022;BME280;2025;48.260;16.432;2024-02-04T00:58:03;100351.59;;;8.09;78.25
4022;BME280;2025;48.260;16.432;2024-02-04T01:00:30;100338.91;;;8.14;77.82
4022;BME280;2025;48.260;16.432;2024-02-04T01:02:57;100352.03;;;8.14;77.96
4022;BME280;2025;48.260;16.432;2024-02-04T01:05:24;100359.31;;;8.20;77.44
4022;BME280;2025;48.260;16.432;2024-02-04T01:07:51;100366.25;;;8.11;78.19
4022;BME280;2025;48.260;16.432;2024-02-04T01:10:20;100368.31;;;8.17;77.98
4022;BME280;2025;48.260;16.432;2024-02-04T01:12:47;100368.59;;;8.24;77.58
4022;BME280;2025;48.260;16.432;2024-02-04T01:15:14;100377.69;;;8.20;78.05
4022;BME280;2025;48.260;16.432;2024-02-04T01:17:41;100364.31;;;8.23;78.62
4022;BME280;2025;48.260;16.432;2024-02-04T01:20:09;100371.75;;;8.18;79.45
4022;BME280;2025;48.260;16.432;2024-02-04T01:22:36;100360.84;;;8.03;80.60
4022;BME280;2025;48.260;16.432;2024-02-04T01:25:03;100357.00;;;7.97;81.55
4022;BME280;2025;48.260;16.432;2024-02-04T01:27:32;100355.59;;;7.84;82.98
4022;BME280;2025;48.260;16.432;2024-02-04T01:29:59;100361.25;;;7.79;83.19
4022;BME280;2025;48.260;16.432;2024-02-04T01:32:26;100371.47;;;7.72;83.85
4022;BME280;2025;48.260;16.432;2024-02-04T01:34:53;100362.31;;;7.67;84.30
4022;BME280;2025;48.260;16.432;2024-02-04T01:37:20;100354.88;;;7.62;84.69
4022;BME280;2025;48.260;16.432;2024-02-04T01:39:47;100369.53;;;7.65;84.91
4022;BME280;2025;48.260;16.432;2024-02-04T01:42:14;100379.31;;;7.63;85.26
4022;BME280;2025;48.260;16.432;2024-02-04T01:44:43;100361.91;;;7.62;85.33
4022;BME280;2025;48.260;16.432;2024-02-04T01:47:10;100356.53;;;7.63;85.45
4022;BME280;2025;48.260;16.432;2024-02-04T01:49:37;100347.56;;;7.66;85.26
4022;BME280;2025;48.260;16.432;2024-02-04T01:52:05;100354.22;;;7.70;85.13
4022;BME280;2025;48.260;16.432;2024-02-04T01:54:34;100349.91;;;7.69;85.35
4022;BME280;2025;48.260;16.432;2024-02-04T01:57:04;100368.13;;;7.60;86.62
4022;BME280;2025;48.260;16.432;2024-02-04T01:59:31;100356.13;;;7.58;87.31
4022;BME280;2025;48.260;16.432;2024-02-04T02:02:00;100350.72;;;7.50;88.67
4022;BME280;2025;48.260;16.432;2024-02-04T02:04:28;100355.13;;;7.39;90.94
4022;BME280;2025;48.260;16.432;2024-02-04T02:06:55;100343.72;;;7.20;93.09
4022;BME280;2025;48.260;16.432;2024-02-04T02:09:25;100352.38;;;7.10;94.33
4022;BME280;2025;48.260;16.432;2024-02-04T02:12:00;100353.75;;;7.05;95.25
4022;BME280;2025;48.260;16.432;2024-02-04T02:14:32;100355.94;;;7.00;96.07
4022;BME280;2025;48.260;16.432;2024-02-04T02:17:06;100363.66;;;7.01;95.68
4022;BME280;2025;48.260;16.432;2024-02-04T02:19:40;100368.44;;;6.96;96.22
4022;BME280;2025;48.260;16.432;2024-02-04T02:22:23;100347.22;;;6.99;95.98
4022;BME280;2025;48.260;16.432;2024-02-04T02:24:56;100360.06;;;6.92;96.62
4022;BME280;2025;48.260;16.432;2024-02-04T02:27:24;100354.94;;;6.91;96.67
4022;BME280;2025;48.260;16.432;2024-02-04T02:29:51;100352.59;;;6.88;97.26
4022;BME280;2025;48.260;16.432;2024-02-04T02:32:18;100353.25;;;6.90;96.48
4022;BME280;2025;48.260;16.432;2024-02-04T02:34:46;100343.31;;;6.84;97.67
4022;BME280;2025;48.260;16.432;2024-02-04T02:37:22;100346.66;;;6.86;97.15
4022;BME280;2025;48.260;16.432;2024-02-04T02:39:59;100339.09;;;6.92;96.49
4022;BME280;2025;48.260;16.432;2024-02-04T02:42:28;100338.94;;;6.94;95.52
4022;BME280;2025;48.260;16.432;2024-02-04T02:44:56;100323.66;;;6.99;94.41
4022;BME280;2025;48.260;16.432;2024-02-04T02:47:23;100332.88;;;6.93;95.44
4022;BME280;2025;48.260;16.432;2024-02-04T02:49:52;100330.69;;;6.99;94.79
4022;BME280;2025;48.260;16.432;2024-02-04T02:52:20;100328.91;;;6.99;94.41
4022;BME280;2025;48.260;16.432;2024-02-04T02:54:47;100331.28;;;7.02;93.90
4022;BME280;2025;48.260;16.432;2024-02-04T02:57:15;100322.03;;;6.98;94.67
4022;BME280;2025;48.260;16.432;2024-02-04T02:59:43;100328.78;;;7.01;94.59
4022;BME280;2025;48.260;16.432;2024-02-04T03:02:10;100324.63;;;6.98;95.25
4022;BME280;2025;48.260;16.432;2024-02-04T03:04:39;100320.66;;;7.04;94.07
4022;BME280;2025;48.260;16.432;2024-02-04T03:07:06;100318.72;;;7.06;93.63
4022;BME280;2025;48.260;16.432;2024-02-04T03:09:33;100309.09;;;7.06;93.58
4022;BME280;2025;48.260;16.432;2024-02-04T03:12:00;100313.25;;;7.09;93.10
4022;BME280;2025;48.260;16.432;2024-02-04T03:14:29;100315.06;;;7.18;91.99
4022;BME280;2025;48.260;16.432;2024-02-04T03:16:56;100312.84;;;7.13;92.37
4022;BME280;2025;48.260;16.432;2024-02-04T03:19:23;100317.81;;;7.16;92.00
4022;BME280;2025;48.260;16.432;2024-02-04T03:21:50;100314.22;;;7.17;91.60
4022;BME280;2025;48.260;16.432;2024-02-04T03:24:17;100319.47;;;7.17;91.77
4022;BME280;2025;48.260;16.432;2024-02-04T03:26:44;100318.63;;;7.17;91.66
4022;BME280;2025;48.260;16.432;2024-02-04T03:29:11;100325.81;;;7.25;90.12
4022;BME280;2025;48.260;16.432;2024-02-04T03:31:39;100336.69;;;7.20;90.37
4022;BME280;2025;48.260;16.432;2024-02-04T03:34:06;100340.41;;;7.17;90.86
4022;BME280;2025;48.260;16.432;2024-02-04T03:36:33;100342.09;;;7.18;90.68
4022;BME280;2025;48.260;16.432;2024-02-04T03:39:00;100342.50;;;7.24;90.15
4022;BME280;2025;48.260;16.432;2024-02-04T03:41:27;100333.16;;;7.31;89.05
4022;BME280;2025;48.260;16.432;2024-02-04T03:43:54;100333.84;;;7.33;89.05
4022;BME280;2025;48.260;16.432;2024-02-04T03:46:21;100330.53;;;7.31;89.36
4022;BME280;2025;48.260;16.432;2024-02-04T03:48:50;100341.72;;;7.33;88.86
4022;BME280;2025;48.260;16.432;2024-02-04T03:51:18;100322.16;;;7.37;88.58
4022;BME280;2025;48.260;16.432;2024-02-04T03:53:45;100315.38;;;7.34;88.62
4022;BME280;2025;48.260;16.432;2024-02-04T03:56:12;100312.50;;;7.37;88.20
4022;BME280;2025;48.260;16.432;2024-02-04T03:58:40;100309.16;;;7.35;88.25
4022;BME280;2025;48.260;16.432;2024-02-04T04:01:09;100306.81;;;7.32;88.74
4022;BME280;2025;48.260;16.432;2024-02-04T04:03:39;100318.66;;;7.36;88.42
4022;BME280;2025;48.260;16.432;2024-02-04T04:06:07;100318.03;;;7.44;87.95
4022;BME280;2025;48.260;16.432;2024-02-04T04:08:35;100327.28;;;7.48;87.92
4022;BME280;2025;48.260;16.432;2024-02-04T04:11:02;100325.47;;;7.49;87.79
4022;BME280;2025;48.260;16.432;2024-02-04T04:13:29;100339.28;;;7.51;87.86
4022;BME280;2025;48.260;16.432;2024-02-04T04:15:57;100330.56;;;7.50;88.11
4022;BME280;2025;48.260;16.432;2024-02-04T04:18:24;100318.31;;;7.51;87.99
4022;BME280;2025;48.260;16.432;2024-02-04T04:20:51;100322.84;;;7.49;87.92
4022;BME280;2025;48.260;16.432;2024-02-04T04:23:20;100314.59;;;7.53;87.18
4022;BME280;2025;48.260;16.432;2024-02-04T04:25:47;100315.69;;;7.51;87.12
4022;BME280;2025;48.260;16.432;2024-02-04T04:28:14;100322.84;;;7.49;87.59
4022;BME280;2025;48.260;16.432;2024-02-04T04:30:41;100316.91;;;7.47;87.58
4022;BME280;2025;48.260;16.432;2024-02-04T04:33:08;100319.25;;;7.40;87.92
4022;BME280;2025;48.260;16.432;2024-02-04T04:35:35;100310.81;;;7.36;88.07
4022;BME280;2025;48.260;16.432;2024-02-04T04:38:02;100316.63;;;7.40;87.67
4022;BME280;2025;48.260;16.432;2024-02-04T04:40:30;100306.03;;;7.42;87.37
4022;BME280;2025;48.260;16.432;2024-02-04T04:42:57;100305.56;;;7.36;87.76
4022;BME280;2025;48.260;16.432;2024-02-04T04:45:24;100314.41;;;7.35;87.71
4022;BME280;2025;48.260;16.432;2024-02-04T04:47:51;100320.63;;;7.44;87.66
4022;BME280;2025;48.260;16.432;2024-02-04T04:50:19;100315.41;;;7.44;87.74
4022;BME280;2025;48.260;16.432;2024-02-04T04:52:46;100310.16;;;7.44;87.49
4022;BME280;2025;48.260;16.432;2024-02-04T04:55:13;100309.88;;;7.47;87.20
4022;BME280;2025;48.260;16.432;2024-02-04T04:57:41;100318.03;;;7.44;87.67
4022;BME280;2025;48.260;16.432;2024-02-04T05:00:09;100320.25;;;7.49;87.16
4022;BME280;2025;48.260;16.432;2024-02-04T05:02:39;100317.63;;;7.49;86.83
4022;BME280;2025;48.260;16.432;2024-02-04T05:05:08;100315.28;;;7.55;86.34
4022;BME280;2025;48.260;16.432;2024-02-04T05:07:35;100319.44;;;7.58;85.86
4022;BME280;2025;48.260;16.432;2024-02-04T05:10:02;100330.16;;;7.55;85.76
4022;BME280;2025;48.260;16.432;2024-02-04T05:12:29;100338.59;;;7.58;85.80
4022;BME280;2025;48.260;16.432;2024-02-04T05:14:58;100339.00;;;7.64;85.55
4022;BME280;2025;48.260;16.432;2024-02-04T05:17:26;100345.53;;;7.69;85.24
4022;BME280;2025;48.260;16.432;2024-02-04T05:19:53;100327.72;;;7.73;84.76
4022;BME280;2025;48.260;16.432;2024-02-04T05:22:20;100341.50;;;7.75;84.43
4022;BME280;2025;48.260;16.432;2024-02-04T05:24:47;100340.81;;;7.73;84.96
4022;BME280;2025;48.260;16.432;2024-02-04T05:27:14;100334.47;;;7.66;85.18
4022;BME280;2025;48.260;16.432;2024-02-04T05:29:41;100330.63;;;7.70;84.12
4022;BME280;2025;48.260;16.432;2024-02-04T05:32:09;100315.28;;;7.55;85.18
4022;BME280;2025;48.260;16.432;2024-02-04T05:34:37;100328.78;;;7.51;85.33
4022;BME280;2025;48.260;16.432;2024-02-04T05:37:04;100345.88;;;7.45;85.32
4022;BME280;2025;48.260;16.432;2024-02-04T05:39:31;100332.53;;;7.48;85.40
4022;BME280;2025;48.260;16.432;2024-02-04T05:41:58;100326.41;;;7.38;86.03
4022;BME280;2025;48.260;16.432;2024-02-04T05:44:25;100339.38;;;7.39;85.75
4022;BME280;2025;48.260;16.432;2024-02-04T05:46:52;100339.53;;;7.48;85.48
4022;BME280;2025;48.260;16.432;2024-02-04T05:49:20;100332.22;;;7.42;85.68
4022;BME280;2025;48.260;16.432;2024-02-04T05:51:47;100338.69;;;7.37;85.97
4022;BME280;2025;48.260;16.432;2024-02-04T05:54:14;100347.78;;;7.43;85.54
4022;BME280;2025;48.260;16.432;2024-02-04T05:56:42;100335.56;;;7.53;84.93
4022;BME280;2025;48.260;16.432;2024-02-04T05:59:09;100336.09;;;7.57;84.68
4022;BME280;2025;48.260;16.432;2024-02-04T06:01:36;100327.28;;;7.48;85.41
4022;BME280;2025;48.260;16.432;2024-02-04T06:04:03;100350.88;;;7.58;85.03
4022;BME280;2025;48.260;16.432;2024-02-04T06:06:31;100337.22;;;7.64;84.37
4022;BME280;2025;48.260;16.432;2024-02-04T06:08:58;100345.06;;;7.64;84.25
4022;BME280;2025;48.260;16.432;2024-02-04T06:11:26;100327.81;;;7.62;84.44
4022;BME280;2025;48.260;16.432;2024-02-04T06:13:53;100347.69;;;7.64;84.20
4022;BME280;2025;48.260;16.432;2024-02-04T06:16:20;100341.09;;;7.70;83.98
4022;BME280;2025;48.260;16.432;2024-02-04T06:18:47;100350.78;;;7.69;83.84
4022;BME280;2025;48.260;16.432;2024-02-04T06:21:14;100367.44;;;7.68;83.69
4022;BME280;2025;48.260;16.432;2024-02-04T06:23:43;100360.41;;;7.78;83.55
4022;BME280;2025;48.260;16.432;2024-02-04T06:26:10;100356.84;;;7.79;83.41
4022;BME280;2025;48.260;16.432;2024-02-04T06:28:37;100367.72;;;7.75;83.95
4022;BME280;2025;48.260;16.432;2024-02-04T06:31:04;100371.59;;;7.80;83.17
4022;BME280;2025;48.260;16.432;2024-02-04T06:33:31;100359.59;;;7.78;83.49
4022;BME280;2025;48.260;16.432;2024-02-04T06:35:58;100365.25;;;7.83;82.72
4022;BME280;2025;48.260;16.432;2024-02-04T06:38:25;100364.59;;;7.81;82.64
4022;BME280;2025;48.260;16.432;2024-02-04T06:40:53;100357.38;;;7.83;82.15
4022;BME280;2025;48.260;16.432;2024-02-04T06:43:20;100378.22;;;7.75;82.72
4022;BME280;2025;48.260;16.432;2024-02-04T06:45:47;100372.44;;;7.81;82.42
4022;BME280;2025;48.260;16.432;2024-02-04T06:48:14;100387.06;;;7.84;82.16
4022;BME280;2025;48.260;16.432;2024-02-04T06:50:45;100392.03;;;7.87;82.20
4022;BME280;2025;48.260;16.432;2024-02-04T06:53:13;100416.22;;;7.90;82.17
4022;BME280;2025;48.260;16.432;2024-02-04T06:55:40;100414.53;;;7.99;80.88
4022;BME280;2025;48.260;16.432;2024-02-04T06:58:08;100416.34;;;7.98;80.96
4022;BME280;2025;48.260;16.432;2024-02-04T07:00:36;100412.50;;;8.02;80.86
4022;BME280;2025;48.260;16.432;2024-02-04T07:03:03;100421.59;;;7.98;81.12
4022;BME280;2025;48.260;16.432;2024-02-04T07:05:30;100430.56;;;7.96;81.59
4022;BME280;2025;48.260;16.432;2024-02-04T07:07:59;100430.84;;;7.93;81.82
4022;BME280;2025;48.260;16.432;2024-02-04T07:10:26;100423.94;;;8.01;80.70
4022;BME280;2025;48.260;16.432;2024-02-04T07:12:52;100415.13;;;8.02;80.72
4022;BME280;2025;48.260;16.432;2024-02-04T07:15:20;100429.06;;;8.03;80.78
4022;BME280;2025;48.260;16.432;2024-02-04T07:17:47;100418.03;;;8.09;80.12
4022;BME280;2025;48.260;16.432;2024-02-04T07:20:15;100424.09;;;8.10;80.44
4022;BME280;2025;48.260;16.432;2024-02-04T07:22:42;100423.97;;;8.21;79.35
4022;BME280;2025;48.260;16.432;2024-02-04T07:25:10;100419.53;;;8.21;79.18
4022;BME280;2025;48.260;16.432;2024-02-04T07:27:37;100417.63;;;8.23;78.93
4022;BME280;2025;48.260;16.432;2024-02-04T07:30:05;100429.22;;;8.21;79.12
4022;BME280;2025;48.260;16.432;2024-02-04T07:32:34;100434.19;;;8.24;79.11
4022;BME280;2025;48.260;16.432;2024-02-04T07:35:03;100434.06;;;8.26;79.05
4022;BME280;2025;48.260;16.432;2024-02-04T07:37:30;100429.91;;;8.23;79.22
4022;BME280;2025;48.260;16.432;2024-02-04T07:39:57;100438.91;;;8.30;78.86
4022;BME280;2025;48.260;16.432;2024-02-04T07:42:24;100435.69;;;8.27;78.99
4022;BME280;2025;48.260;16.432;2024-02-04T07:44:51;100438.19;;;8.28;79.40
4022;BME280;2025;48.260;16.432;2024-02-04T07:47:18;100429.34;;;8.29;78.92
4022;BME280;2025;48.260;16.432;2024-02-04T07:49:48;100420.94;;;8.35;79.11
4022;BME280;2025;48.260;16.432;2024-02-04T07:52:15;100408.34;;;8.39;78.38
4022;BME280;2025;48.260;16.432;2024-02-04T07:54:42;100414.31;;;8.41;78.52
4022;BME280;2025;48.260;16.432;2024-02-04T07:57:09;100408.13;;;8.42;78.59
4022;BME280;2025;48.260;16.432;2024-02-04T07:59:37;100410.97;;;8.39;78.58
4022;BME280;2025;48.260;16.432;2024-02-04T08:02:04;100405.72;;;8.39;78.68
4022;BME280;2025;48.260;16.432;2024-02-04T08:04:32;100410.44;;;8.35;79.45
4022;BME280;2025;48.260;16.432;2024-02-04T08:07:01;100398.56;;;8.41;78.53
4022;BME280;2025;48.260;16.432;2024-02-04T08:09:28;100403.97;;;8.49;78.51
4022;BME280;2025;48.260;16.432;2024-02-04T08:11:55;100400.50;;;8.58;78.03
4022;BME280;2025;48.260;16.432;2024-02-04T08:14:22;100402.31;;;8.58;78.03
4022;BME280;2025;48.260;16.432;2024-02-04T08:16:49;100403.81;;;8.60;77.51
4022;BME280;2025;48.260;16.432;2024-02-04T08:19:17;100414.44;;;8.59;77.40
4022;BME280;2025;48.260;16.432;2024-02-04T08:21:44;100396.34;;;8.56;77.47
4022;BME280;2025;48.260;16.432;2024-02-04T08:24:12;100402.16;;;8.59;77.31
4022;BME280;2025;48.260;16.432;2024-02-04T08:26:39;100404.50;;;8.62;77.62
4022;BME280;2025;48.260;16.432;2024-02-04T08:29:06;100397.84;;;8.68;77.06
4022;BME280;2025;48.260;16.432;2024-02-04T08:31:33;100410.44;;;8.74;77.25
4022;BME280;2025;48.260;16.432;2024-02-04T08:34:00;100405.41;;;8.81;76.80
4022;BME280;2025;48.260;16.432;2024-02-04T08:36:29;100404.19;;;8.75;76.39
4022;BME280;2025;48.260;16.432;2024-02-04T08:38:56;100407.50;;;8.77;76.85
4022;BME280;2025;48.260;16.432;2024-02-04T08:41:25;100403.47;;;8.83;76.73
4022;BME280;2025;48.260;16.432;2024-02-04T08:43:52;100400.84;;;8.83;76.03
4022;BME280;2025;48.260;16.432;2024-02-04T08:46:19;100382.88;;;8.78;76.22
4022;BME280;2025;48.260;16.432;2024-02-04T08:48:46;100377.50;;;8.80;76.12
4022;BME280;2025;48.260;16.432;2024-02-04T08:51:13;100380.53;;;8.85;76.55
4022;BME280;2025;48.260;16.432;2024-02-04T08:53:41;100377.34;;;8.91;75.67
4022;BME280;2025;48.260;16.432;2024-02-04T08:56:09;100372.34;;;8.98;75.44
4022;BME280;2025;48.260;16.432;2024-02-04T08:58:37;100379.63;;;9.04;75.18
4022;BME280;2025;48.260;16.432;2024-02-04T09:01:04;100362.31;;;9.11;75.10
4022;BME280;2025;48.260;16.432;2024-02-04T09:03:32;100367.34;;;9.04;75.29
4022;BME280;2025;48.260;16.432;2024-02-04T09:05:59;100362.47;;;9.10;74.75
4022;BME280;2025;48.260;16.432;2024-02-04T09:08:26;100369.75;;;9.25;73.96
4022;BME280;2025;48.260;16.432;2024-02-04T09:10:54;100356.31;;;9.28;74.49
4022;BME280;2025;48.260;16.432;2024-02-04T09:13:21;100365.06;;;9.19;74.40
4022;BME280;2025;48.260;16.432;2024-02-04T09:15:50;100360.38;;;9.13;74.17
4022;BME280;2025;48.260;16.432;2024-02-04T09:18:18;100351.88;;;9.29;74.10
4022;BME280;2025;48.260;16.432;2024-02-04T09:20:45;100359.69;;;9.39;73.41
4022;BME280;2025;48.260;16.432;2024-02-04T09:23:12;100368.91;;;9.53;73.52
4022;BME280;2025;48.260;16.432;2024-02-04T09:25:39;100368.31;;;9.59;72.84
4022;BME280;2025;48.260;16.432;2024-02-04T09:28:06;100350.31;;;9.82;73.10
4022;BME280;2025;48.260;16.432;2024-02-04T09:30:33;100355.94;;;9.87;71.51
4022;BME280;2025;48.260;16.432;2024-02-04T09:33:02;100367.69;;;9.65;72.81
4022;BME280;2025;48.260;16.432;2024-02-04T09:35:29;100343.22;;;9.46;72.64
4022;BME280;2025;48.260;16.432;2024-02-04T09:37:56;100340.50;;;9.56;72.78
4022;BME280;2025;48.260;16.432;2024-02-04T09:40:23;100340.59;;;9.82;72.19
4022;BME280;2025;48.260;16.432;2024-02-04T09:42:50;100340.28;;;9.85;72.14
4022;BME280;2025;48.260;16.432;2024-02-04T09:45:18;100336.09;;;10.10;71.52
4022;BME280;2025;48.260;16.432;2024-02-04T09:47:45;100345.88;;;10.00;71.06
4022;BME280;2025;48.260;16.432;2024-02-04T09:50:14;100346.47;;;9.94;70.84
4022;BME280;2025;48.260;16.432;2024-02-04T09:52:47;100341.03;;;10.13;71.28
4022;BME280;2025;48.260;16.432;2024-02-04T09:55:16;100347.06;;;10.06;71.10
4022;BME280;2025;48.260;16.432;2024-02-04T09:57:44;100328.19;;;9.92;71.13
4022;BME280;2025;48.260;16.432;2024-02-04T10:00:12;100313.38;;;10.09;70.86
4022;BME280;2025;48.260;16.432;2024-02-04T10:02:41;100334.56;;;10.26;70.84
4022;BME280;2025;48.260;16.432;2024-02-04T10:05:08;100318.47;;;10.11;70.53
4022;BME280;2025;48.260;16.432;2024-02-04T10:07:37;100293.84;;;10.56;69.85
4022;BME280;2025;48.260;16.432;2024-02-04T10:10:06;100300.56;;;10.32;70.60
4022;BME280;2025;48.260;16.432;2024-02-04T10:12:34;100316.22;;;10.16;70.80
4022;BME280;2025;48.260;16.432;2024-02-04T10:15:05;100292.69;;;10.15;70.18
4022;BME280;2025;48.260;16.432;2024-02-04T10:17:32;100313.66;;;10.24;70.56
4022;BME280;2025;48.260;16.432;2024-02-04T10:20:00;100305.22;;;10.21;71.31
4022;BME280;2025;48.260;16.432;2024-02-04T10:22:28;100286.97;;;10.19;71.42
4022;BME280;2025;48.260;16.432;2024-02-04T10:25:06;100289.44;;;10.21;71.80
4022;BME280;2025;48.260;16.432;2024-02-04T10:27:34;100298.31;;;10.20;71.32
4022;BME280;2025;48.260;16.432;2024-02-04T10:30:02;100289.03;;;10.07;72.01
4022;BME280;2025;48.260;16.432;2024-02-04T10:32:29;100301.59;;;9.96;72.40
4022;BME280;2025;48.260;16.432;2024-02-04T10:34:57;100287.31;;;9.80;72.61
4022;BME280;2025;48.260;16.432;2024-02-04T10:37:25;100266.41;;;9.79;73.66
4022;BME280;2025;48.260;16.432;2024-02-04T10:39:52;100251.94;;;9.75;72.56
4022;BME280;2025;48.260;16.432;2024-02-04T10:42:24;100262.22;;;9.68;73.10
4022;BME280;2025;48.260;16.432;2024-02-04T10:44:53;100256.44;;;9.64;73.35
4022;BME280;2025;48.260;16.432;2024-02-04T10:47:22;100243.66;;;9.69;73.66
4022;BME280;2025;48.260;16.432;2024-02-04T10:49:51;100244.88;;;9.75;73.01
4022;BME280;2025;48.260;16.432;2024-02-04T10:52:20;100240.38;;;9.67;73.22
4022;BME280;2025;48.260;16.432;2024-02-04T10:54:49;100254.47;;;9.66;73.51
4022;BME280;2025;48.260;16.432;2024-02-04T10:57:23;100212.97;;;9.78;72.90
4022;BME280;2025;48.260;16.432;2024-02-04T10:59:52;100218.31;;;9.86;72.46
4022;BME280;2025;48.260;16.432;2024-02-04T11:02:19;100218.53;;;9.93;72.43
4022;BME280;2025;48.260;16.432;2024-02-04T11:04:48;100225.53;;;10.28;71.08
4022;BME280;2025;48.260;16.432;2024-02-04T11:07:17;100229.00;;;10.29;71.20
4022;BME280;2025;48.260;16.432;2024-02-04T11:09:45;100226.78;;;10.24;70.90
4022;BME280;2025;48.260;16.432;2024-02-04T11:12:16;100235.41;;;10.08;71.35
4022;BME280;2025;48.260;16.432;2024-02-04T11:14:55;100201.59;;;10.22;71.53
4022;BME280;2025;48.260;16.432;2024-02-04T11:17:42;100197.13;;;10.14;71.56
4022;BME280;2025;48.260;16.432;2024-02-04T11:20:18;100202.75;;;9.93;72.10
4022;BME280;2025;48.260;16.432;2024-02-04T11:23:16;100207.94;;;9.85;72.58
4022;BME280;2025;48.260;16.432;2024-02-04T11:25:48;100202.44;;;9.96;73.01
4022;BME280;2025;48.260;16.432;2024-02-04T11:28:16;100211.84;;;9.81;73.29
4022;BME280;2025;48.260;16.432;2024-02-04T11:30:47;100233.81;;;9.71;74.11
4022;BME280;2025;48.260;16.432;2024-02-04T11:33:18;100210.53;;;9.59;74.41
4022;BME280;2025;48.260;16.432;2024-02-04T11:35:45;100219.09;;;9.61;75.30
4022;BME280;2025;48.260;16.432;2024-02-04T11:38:17;100197.16;;;9.52;75.06
4022;BME280;2025;48.260;16.432;2024-02-04T11:40:45;100210.44;;;9.50;75.21
4022;BME280;2025;48.260;16.432;2024-02-04T11:43:14;100208.66;;;9.51;75.67
4022;BME280;2025;48.260;16.432;2024-02-04T11:45:42;100209.03;;;9.38;76.10
4022;BME280;2025;48.260;16.432;2024-02-04T11:48:11;100194.25;;;9.37;75.97
4022;BME280;2025;48.260;16.432;2024-02-04T11:50:39;100220.09;;;9.42;76.15
4022;BME280;2025;48.260;16.432;2024-02-04T11:53:08;100206.19;;;9.49;75.94
4022;BME280;2025;48.260;16.432;2024-02-04T11:55:36;100215.25;;;9.55;75.33
4022;BME280;2025;48.260;16.432;2024-02-04T11:58:05;100236.47;;;9.54;75.61
4022;BME280;2025;48.260;16.432;2024-02-04T12:00:32;100220.28;;;9.48;75.63
4022;BME280;2025;48.260;16.432;2024-02-04T12:03:00;100224.13;;;9.54;75.33
4022;BME280;2025;48.260;16.432;2024-02-04T12:05:31;100211.59;;;9.48;75.16
4022;BME280;2025;48.260;16.432;2024-02-04T12:08:02;100198.66;;;9.55;74.64
4022;BME280;2025;48.260;16.432;2024-02-04T12:10:30;100183.25;;;9.60;74.53
4022;BME280;2025;48.260;16.432;2024-02-04T12:12:59;100189.72;;;9.65;74.16
4022;BME280;2025;48.260;16.432;2024-02-04T12:15:26;100178.56;;;9.71;74.28
4022;BME280;2025;48.260;16.432;2024-02-04T12:17:53;100190.53;;;9.84;73.73
4022;BME280;2025;48.260;16.432;2024-02-04T12:20:21;100178.69;;;9.88;73.35
4022;BME280;2025;48.260;16.432;2024-02-04T12:22:49;100171.78;;;9.87;72.71
4022;BME280;2025;48.260;16.432;2024-02-04T12:25:17;100172.75;;;9.86;72.73
4022;BME280;2025;48.260;16.432;2024-02-04T12:27:44;100171.06;;;9.77;73.27
4022;BME280;2025;48.260;16.432;2024-02-04T12:30:13;100155.75;;;9.72;72.71
4022;BME280;2025;48.260;16.432;2024-02-04T12:32:41;100167.53;;;9.68;72.25
4022;BME280;2025;48.260;16.432;2024-02-04T12:35:08;100162.13;;;9.69;72.31
4022;BME280;2025;48.260;16.432;2024-02-04T12:37:51;100171.34;;;9.74;nan
4022;BME280;2025;48.260;16.432;2024-02-04T12:40:21;100148.22;;;9.77;71.89
4022;BME280;2025;48.260;16.432;2024-02-04T12:42:53;100166.78;;;9.76;72.00
4022;BME280;2025;48.260;16.432;2024-02-04T12:45:20;100176.94;;;9.70;72.30
4022;BME280;2025;48.260;16.432;2024-02-04T12:47:49;100161.28;;;9.69;72.28
4022;BME280;2025;48.260;16.432;2024-02-04T12:50:17;100155.44;;;9.75;71.89
4022;BME280;2025;48.260;16.432;2024-02-04T12:52:45;100137.63;;;9.69;71.93
4022;BME280;2025;48.260;16.432;2024-02-04T12:55:23;100137.34;;;9.72;72.08
4022;BME280;2025;48.260;16.432;2024-02-04T12:57:50;100117.69;;;9.84;nan
4022;BME280;2025;48.260;16.432;2024-02-04T13:00:18;100127.53;;;9.82;71.53
4022;BME280;2025;48.260;16.432;2024-02-04T13:02:49;100131.03;;;9.91;71.60
4022;BME280;2025;48.260;16.432;2024-02-04T13:05:23;100125.09;;;9.89;71.11
4022;BME280;2025;48.260;16.432;2024-02-04T13:07:54;100106.66;;;10.15;70.66
4022;BME280;2025;48.260;16.432;2024-02-04T13:10:24;100126.09;;;10.57;69.94
4022;BME280;2025;48.260;16.432;2024-02-04T13:12:59;100116.22;;;10.67;68.41
4022;BME280;2025;48.260;16.432;2024-02-04T13:15:40;100102.97;;;10.34;69.35